createdAt,value
2022-10-06T00:01:41.773Z,448.45
2022-10-06T00:04:29.736Z,422.85
2022-10-06T00:07:18.276Z,430.23
2022-10-06T00:10:07.545Z,426.55
2022-10-06T00:12:55.565Z,442.75
2022-10-06T00:15:44.869Z,451.83
2022-10-06T00:18:32.851Z,449.80
2022-10-06T00:21:20.766Z,465.58
2022-10-06T00:24:08.811Z,462.05
2022-10-06T00:26:56.753Z,435.10
2022-10-06T00:29:44.679Z,447.42
2022-10-06T00:32:34.162Z,468.60
2022-10-06T00:35:23.165Z,473.60
2022-10-06T00:38:12.593Z,480.45
2022-10-06T00:41:00.556Z,479.58
2022-10-06T00:43:51.402Z,467.65
2022-10-06T00:46:45.028Z,494.08
2022-10-06T00:49:39.616Z,479.23
2022-10-06T00:52:31.773Z,442.08
2022-10-06T00:55:22.325Z,439.75
2022-10-06T00:58:11.103Z,514.90
2022-10-06T01:01:00.542Z,450.10
2022-10-06T01:03:54.631Z,487.60
2022-10-06T01:06:47.150Z,473.27
2022-10-06T01:09:35.940Z,470.40
2022-10-06T01:12:25.010Z,461.05
2022-10-06T01:15:14.197Z,465.25
2022-10-06T01:18:06.243Z,468.05
2022-10-06T01:21:01.915Z,453.40
2022-10-06T01:23:51.268Z,457.83
2022-10-06T01:26:46.253Z,466.10
2022-10-06T01:29:35.508Z,460.50
2022-10-06T01:32:25.887Z,487.25
2022-10-06T01:35:14.505Z,473.15
2022-10-06T01:38:02.508Z,448.23
2022-10-06T01:40:54.633Z,473.13
2022-10-06T01:43:42.573Z,456.00
2022-10-06T01:46:31.337Z,467.80
2022-10-06T01:49:20.020Z,457.65
2022-10-06T01:52:07.949Z,459.63
2022-10-06T01:54:56.333Z,470.45
2022-10-06T01:57:46.514Z,479.55
2022-10-06T02:00:34.473Z,459.67
2022-10-06T02:03:22.481Z,481.63
2022-10-06T02:06:11.676Z,465.27
2022-10-06T02:09:00.583Z,461.67
2022-10-06T02:11:48.671Z,447.63
2022-10-06T02:14:38.217Z,469.52
2022-10-06T02:17:26.394Z,466.65
2022-10-06T02:20:15.038Z,471.50
2022-10-06T02:23:04.011Z,479.80
2022-10-06T02:25:59.341Z,459.95
2022-10-06T02:28:49.755Z,478.60
2022-10-06T02:31:43.004Z,451.30
2022-10-06T02:34:31.134Z,473.60
2022-10-06T02:37:19.156Z,459.92
2022-10-06T02:40:08.665Z,472.02
2022-10-06T02:42:56.577Z,463.75
2022-10-06T02:45:44.509Z,463.08
2022-10-06T02:48:35.486Z,469.48
2022-10-06T02:51:25.417Z,451.95
2022-10-06T02:54:13.866Z,467.15
2022-10-06T02:57:01.814Z,484.60
2022-10-06T02:59:49.777Z,477.48
2022-10-06T03:02:37.913Z,493.10
2022-10-06T03:05:27.510Z,457.85
2022-10-06T03:08:15.499Z,456.98
2022-10-06T03:11:06.602Z,479.63
2022-10-06T03:13:54.743Z,463.58
2022-10-06T03:16:43.913Z,466.80
2022-10-06T03:19:40.777Z,451.65
2022-10-06T03:22:32.481Z,455.40
2022-10-06T03:25:20.727Z,465.42
2022-10-06T03:28:08.732Z,470.80
2022-10-06T03:31:02.545Z,485.95
2022-10-06T03:33:51.637Z,468.70
2022-10-06T03:36:39.613Z,460.38
2022-10-06T03:39:28.992Z,478.10
2022-10-06T03:42:16.898Z,491.33
2022-10-06T03:45:07.472Z,488.08
2022-10-06T03:47:56.151Z,487.02
2022-10-06T03:50:45.862Z,477.20
2022-10-06T03:53:36.062Z,471.85
2022-10-06T03:56:26.966Z,496.95
2022-10-06T03:59:17.416Z,471.08
2022-10-06T04:02:07.101Z,489.23
2022-10-06T04:04:57.909Z,464.92
2022-10-06T04:07:45.844Z,470.02
2022-10-06T04:10:34.426Z,507.63
2022-10-06T04:13:23.918Z,472.83
2022-10-06T04:16:14.059Z,479.85
2022-10-06T04:19:04.398Z,453.92
2022-10-06T04:21:53.869Z,467.42
2022-10-06T04:24:44.586Z,483.38
2022-10-06T04:27:32.592Z,461.95
2022-10-06T04:30:30.998Z,472.58
2022-10-06T04:33:20.267Z,484.90
2022-10-06T04:36:09.912Z,489.27
2022-10-06T04:38:59.451Z,483.83
2022-10-06T04:41:49.062Z,487.55
2022-10-06T04:44:44.679Z,457.05
2022-10-06T04:47:34.200Z,474.38
2022-10-06T04:50:22.626Z,471.73
2022-10-06T04:53:26.378Z,435.77
2022-10-06T04:56:16.317Z,460.92
2022-10-06T04:59:04.633Z,467.45
2022-10-06T05:01:56.083Z,457.23
2022-10-06T05:04:45.925Z,465.40
2022-10-06T05:07:36.007Z,471.15
2022-10-06T05:10:23.922Z,467.65
2022-10-06T05:13:12.499Z,448.27
2022-10-06T05:16:01.657Z,467.50
2022-10-06T05:18:53.159Z,470.15
2022-10-06T05:21:42.386Z,456.35
2022-10-06T05:24:33.473Z,452.10
2022-10-06T05:27:21.778Z,477.42
2022-10-06T05:30:11.226Z,451.67
2022-10-06T05:32:59.737Z,456.58
2022-10-06T05:35:52.775Z,439.10
2022-10-06T05:38:42.665Z,440.00
2022-10-06T05:41:32.827Z,457.95
2022-10-06T05:44:24.352Z,441.55
2022-10-06T05:47:12.415Z,432.63
2022-10-06T05:50:00.447Z,447.48
2022-10-06T05:52:48.321Z,447.60
2022-10-06T05:55:37.883Z,461.05
2022-10-06T05:58:26.349Z,442.13
2022-10-06T06:01:16.898Z,436.42
2022-10-06T06:03:49.382Z,428.38
2022-10-06T06:06:19.471Z,434.35
2022-10-06T06:08:48.407Z,435.75
2022-10-06T06:11:17.471Z,449.70
2022-10-06T06:13:45.527Z,447.30
2022-10-06T06:16:15.627Z,449.75
2022-10-06T06:18:44.319Z,457.58
2022-10-06T06:21:14.298Z,478.50
2022-10-06T06:23:46.285Z,460.33
2022-10-06T06:26:18.492Z,441.08
2022-10-06T06:28:50.900Z,461.95
2022-10-06T06:31:21.992Z,453.27
2022-10-06T06:33:53.115Z,466.48
2022-10-06T06:36:25.606Z,457.08
2022-10-06T06:38:55.336Z,463.20
2022-10-06T06:41:26.470Z,476.92
2022-10-06T06:44:01.118Z,438.55
2022-10-06T06:46:51.947Z,467.65
2022-10-06T06:49:20.584Z,431.65
2022-10-06T06:51:54.239Z,469.58
2022-10-06T06:54:24.692Z,484.38
2022-10-06T06:56:58.308Z,490.40
2022-10-06T06:59:26.370Z,469.25
2022-10-06T07:01:57.634Z,476.38
2022-10-06T07:04:26.294Z,472.70
2022-10-06T07:06:58.128Z,484.52
2022-10-06T07:09:29.421Z,484.13
2022-10-06T07:12:04.114Z,480.90
2022-10-06T07:14:32.790Z,482.23
2022-10-06T07:17:24.481Z,471.83
2022-10-06T07:20:22.257Z,468.77
2022-10-06T07:23:07.785Z,456.80
2022-10-06T07:25:35.647Z,453.63
2022-10-06T07:28:12.234Z,447.60
2022-10-06T07:30:41.453Z,469.55
2022-10-06T07:33:14.595Z,458.02
2022-10-06T07:35:44.726Z,474.15
2022-10-06T07:38:14.055Z,458.98
2022-10-06T07:40:50.672Z,461.20
2022-10-06T07:43:34.615Z,465.27
2022-10-06T07:46:02.356Z,457.23
2022-10-06T07:48:34.412Z,449.15
2022-10-06T07:51:06.971Z,457.50
2022-10-06T07:53:39.435Z,454.40
2022-10-06T07:56:16.822Z,452.58
2022-10-06T07:58:51.174Z,468.50
2022-10-06T08:01:20.590Z,476.63
2022-10-06T08:03:50.630Z,444.55
2022-10-06T08:06:19.738Z,440.33
2022-10-06T08:08:52.824Z,428.95
2022-10-06T08:11:22.757Z,438.30
2022-10-06T08:13:52.629Z,429.15
2022-10-06T08:16:22.101Z,405.95
2022-10-06T08:18:51.153Z,407.40
2022-10-06T08:21:21.557Z,391.15
2022-10-06T08:23:50.933Z,400.55
2022-10-06T08:26:21.536Z,396.50
2022-10-06T08:28:52.620Z,386.55
2022-10-06T08:31:22.541Z,369.30
2022-10-06T08:33:54.879Z,386.00
2022-10-06T08:36:25.917Z,388.42
2022-10-06T08:38:56.255Z,373.33
2022-10-06T08:41:27.130Z,358.55
2022-10-06T08:44:02.646Z,328.65
2022-10-06T08:46:37.405Z,338.13
2022-10-06T08:49:05.724Z,318.75
2022-10-06T08:51:54.301Z,307.90
2022-10-06T08:54:29.766Z,312.67
2022-10-06T08:57:03.607Z,325.40
2022-10-06T08:59:36.556Z,322.33
2022-10-06T09:02:06.703Z,311.73
2022-10-06T09:04:35.097Z,312.67
2022-10-06T09:07:11.230Z,311.95
2022-10-06T09:09:56.891Z,296.67
2022-10-06T09:12:32.874Z,284.38
2022-10-06T09:15:19.892Z,278.63
2022-10-06T09:17:55.125Z,273.73
2022-10-06T09:20:29.620Z,292.92
2022-10-06T09:22:58.242Z,294.85
2022-10-06T09:25:29.057Z,286.98
2022-10-06T09:27:58.552Z,282.85
2022-10-06T09:30:28.360Z,281.88
2022-10-06T09:33:00.044Z,266.52
2022-10-06T09:35:29.989Z,261.02
2022-10-06T09:38:00.684Z,280.50
2022-10-06T09:40:40.224Z,271.90
2022-10-06T09:43:21.256Z,241.90
2022-10-06T09:45:51.628Z,250.68
2022-10-06T09:48:24.726Z,255.70
2022-10-06T09:51:09.360Z,227.30
2022-10-06T09:53:39.463Z,219.00
2022-10-06T09:56:15.566Z,211.02
2022-10-06T09:58:56.228Z,215.43
2022-10-06T10:01:27.395Z,222.93
2022-10-06T10:06:45.509Z,206.65
2022-10-06T10:09:26.992Z,219.27
2022-10-06T10:12:31.262Z,219.07
2022-10-06T10:15:03.930Z,211.52
2022-10-06T10:17:48.949Z,215.60
2022-10-06T10:20:35.079Z,198.30
2022-10-06T10:23:07.171Z,202.02
2022-10-06T10:25:58.418Z,212.18
2022-10-06T10:28:46.866Z,188.90
2022-10-06T10:31:22.178Z,179.75
2022-10-06T10:34:11.961Z,185.57
2022-10-06T10:36:47.017Z,184.07
2022-10-06T10:39:26.811Z,182.82
2022-10-06T10:41:58.104Z,170.45
2022-10-06T10:44:30.877Z,170.65
2022-10-06T10:47:11.694Z,173.20
2022-10-06T10:49:46.584Z,186.18
2022-10-06T10:52:20.225Z,170.50
2022-10-06T10:54:52.459Z,167.50
2022-10-06T10:57:23.534Z,179.15
2022-10-06T11:00:00.645Z,172.63
2022-10-06T11:02:29.151Z,167.13
2022-10-06T11:05:04.278Z,180.43
2022-10-06T11:07:37.961Z,179.88
2022-10-06T11:10:14.741Z,174.20
2022-10-06T11:12:58.401Z,183.05
2022-10-06T11:15:41.219Z,179.25
2022-10-06T11:18:23.332Z,170.55
2022-10-06T11:20:56.740Z,174.18
2022-10-06T11:23:41.454Z,174.00
2022-10-06T11:26:24.546Z,186.70
2022-10-06T11:28:59.780Z,184.25
2022-10-06T11:31:35.237Z,179.73
2022-10-06T11:34:04.744Z,188.00
2022-10-06T11:36:43.295Z,186.93
2022-10-06T11:39:23.343Z,184.35
2022-10-06T11:41:57.972Z,184.20
2022-10-06T11:44:32.551Z,187.63
2022-10-06T11:47:06.154Z,187.43
2022-10-06T11:49:51.491Z,207.65
2022-10-06T11:52:47.401Z,190.35
2022-10-06T11:55:22.052Z,196.52
2022-10-06T11:58:23.364Z,188.52
2022-10-06T12:00:55.058Z,193.68
2022-10-06T12:04:06.214Z,201.50
2022-10-06T12:07:07.416Z,187.07
2022-10-06T12:10:14.774Z,181.60
2022-10-06T12:12:57.343Z,174.35
2022-10-06T12:18:55.151Z,174.70
2022-10-06T12:21:40.028Z,191.43
2022-10-06T12:24:25.482Z,176.68
2022-10-06T12:27:25.020Z,185.38
2022-10-06T12:30:00.690Z,173.90
2022-10-06T12:32:47.418Z,194.70
2022-10-06T12:35:24.848Z,198.23
2022-10-06T12:37:54.395Z,183.25
2022-10-06T12:40:54.513Z,184.88
2022-10-06T12:43:35.952Z,182.57
2022-10-06T12:46:07.850Z,191.35
2022-10-06T12:48:42.755Z,193.48
2022-10-06T12:51:23.284Z,196.13
2022-10-06T12:53:58.130Z,192.75
2022-10-06T12:56:29.339Z,206.98
2022-10-06T12:58:58.991Z,205.65
2022-10-06T13:01:27.802Z,191.07
2022-10-06T13:03:56.107Z,202.02
2022-10-06T13:06:25.981Z,194.60
2022-10-06T13:09:07.022Z,200.95
2022-10-06T13:11:34.849Z,201.38
2022-10-06T13:14:13.690Z,204.68
2022-10-06T13:16:45.215Z,206.20
2022-10-06T13:19:18.375Z,214.43
2022-10-06T13:21:47.479Z,202.70
2022-10-06T13:24:19.370Z,200.35
2022-10-06T13:26:47.993Z,204.95
2022-10-06T13:29:23.868Z,191.50
2022-10-06T13:31:53.387Z,213.52
2022-10-06T13:34:28.075Z,211.25
2022-10-06T13:36:56.340Z,218.80
2022-10-06T13:39:26.823Z,215.90
2022-10-06T13:41:57.517Z,201.43
2022-10-06T13:44:31.963Z,211.32
2022-10-06T13:47:02.185Z,205.63
2022-10-06T13:49:34.912Z,206.38
2022-10-06T13:52:10.014Z,202.38
2022-10-06T13:54:46.435Z,207.07
2022-10-06T13:57:37.149Z,205.25
2022-10-06T14:00:17.739Z,204.55
2022-10-06T14:02:46.993Z,194.63
2022-10-06T14:05:31.316Z,211.10
2022-10-06T14:08:01.159Z,207.38
2022-10-06T14:10:33.439Z,211.48
2022-10-06T14:13:02.210Z,200.77
2022-10-06T14:15:39.777Z,209.77
2022-10-06T14:18:07.441Z,199.10
2022-10-06T14:20:42.224Z,211.30
2022-10-06T14:23:35.707Z,195.10
2022-10-06T14:26:03.361Z,204.35
2022-10-06T14:28:31.125Z,204.27
2022-10-06T14:31:00.447Z,213.02
2022-10-06T14:33:28.091Z,194.50
2022-10-06T14:35:55.680Z,207.05
2022-10-06T14:38:24.533Z,212.05
2022-10-06T14:40:52.169Z,202.15
2022-10-06T14:43:19.824Z,206.50
2022-10-06T14:45:47.779Z,213.25
2022-10-06T14:48:16.713Z,211.20
2022-10-06T14:50:45.106Z,209.20
2022-10-06T14:53:15.338Z,218.82
2022-10-06T14:55:44.720Z,193.10
2022-10-06T14:58:12.949Z,214.63
2022-10-06T15:00:42.865Z,208.27
2022-10-06T15:03:10.865Z,214.50
2022-10-06T15:06:00.222Z,198.65
2022-10-06T15:08:26.910Z,189.45
2022-10-06T15:10:54.537Z,197.50
2022-10-06T15:13:22.179Z,210.80
2022-10-06T15:15:51.127Z,204.95
2022-10-06T15:18:19.059Z,207.25
2022-10-06T15:20:49.026Z,197.88
2022-10-06T15:23:17.273Z,206.55
2022-10-06T15:26:09.876Z,205.82
2022-10-06T15:28:55.404Z,209.18
2022-10-06T15:31:24.719Z,206.57
2022-10-06T15:33:53.341Z,228.80
2022-10-06T15:36:23.887Z,225.63
2022-10-06T15:38:52.094Z,215.45
2022-10-06T15:41:20.450Z,234.75
2022-10-06T15:43:57.366Z,243.88
2022-10-06T15:46:27.313Z,246.77
2022-10-06T15:48:56.197Z,248.27
2022-10-06T15:51:25.418Z,262.50
2022-10-06T15:53:53.122Z,262.80
2022-10-06T15:56:20.893Z,250.38
2022-10-06T15:58:48.703Z,250.73
2022-10-06T16:01:35.363Z,269.73
2022-10-06T16:04:11.171Z,249.57
2022-10-06T16:06:43.812Z,258.35
2022-10-06T16:09:13.033Z,268.80
2022-10-06T16:11:40.852Z,262.25
2022-10-06T16:14:09.423Z,267.90
2022-10-06T16:16:42.610Z,292.20
2022-10-06T16:19:11.249Z,285.40
2022-10-06T16:21:41.271Z,290.63
2022-10-06T16:24:09.067Z,292.48
2022-10-06T16:26:36.763Z,290.25
2022-10-06T16:29:04.808Z,287.77
2022-10-06T16:31:32.727Z,277.88
2022-10-06T16:34:00.469Z,288.90
2022-10-06T16:36:28.260Z,292.10
2022-10-06T16:38:57.870Z,309.77
2022-10-06T16:41:26.140Z,315.08
2022-10-06T16:43:54.775Z,345.08
2022-10-06T16:46:24.332Z,328.88
2022-10-06T16:48:53.504Z,328.25
2022-10-06T16:51:22.505Z,361.92
2022-10-06T16:53:51.937Z,346.00
2022-10-06T16:56:22.897Z,369.65
2022-10-06T16:58:53.851Z,373.90
2022-10-06T17:01:23.806Z,351.00
2022-10-06T17:03:58.655Z,364.25
2022-10-06T17:06:26.883Z,410.33
2022-10-06T17:08:54.585Z,385.38
2022-10-06T17:11:25.910Z,374.60
2022-10-06T17:13:55.647Z,392.08
2022-10-06T17:16:25.630Z,377.42
2022-10-06T17:18:55.620Z,388.08
2022-10-06T17:21:44.848Z,405.88
2022-10-06T17:24:11.613Z,390.50
2022-10-06T17:26:42.531Z,393.63
2022-10-06T17:29:14.978Z,412.40
2022-10-06T17:31:43.987Z,378.63
2022-10-06T17:34:15.067Z,383.83
2022-10-06T17:36:48.304Z,362.85
2022-10-06T17:39:18.061Z,375.48
2022-10-06T17:41:48.819Z,362.08
2022-10-06T17:44:22.348Z,356.85
2022-10-06T17:46:51.720Z,368.35
2022-10-06T17:49:21.401Z,362.90
2022-10-06T17:51:50.000Z,340.52
2022-10-06T17:54:19.969Z,357.50
2022-10-06T17:56:50.478Z,353.70
2022-10-06T17:59:21.524Z,365.90
2022-10-06T18:01:51.141Z,359.75
2022-10-06T18:04:20.067Z,344.20
2022-10-06T18:06:48.649Z,347.70
2022-10-06T18:09:17.053Z,343.92
2022-10-06T18:11:45.739Z,334.58
2022-10-06T18:14:15.916Z,358.30
2022-10-06T18:16:45.375Z,349.17
2022-10-06T18:19:14.583Z,359.65
2022-10-06T18:21:43.496Z,341.20
2022-10-06T18:24:15.362Z,351.13
2022-10-06T18:26:43.187Z,338.15
2022-10-06T18:29:11.570Z,348.25
2022-10-06T18:31:40.594Z,362.67
2022-10-06T18:36:57.829Z,332.33
2022-10-06T18:39:25.568Z,353.33
2022-10-06T18:41:53.580Z,347.65
2022-10-06T18:44:35.183Z,358.83
2022-10-06T18:47:22.192Z,347.60
2022-10-06T18:49:49.798Z,338.73
2022-10-06T18:52:17.564Z,341.98
2022-10-06T18:54:45.919Z,351.13
2022-10-06T18:57:13.485Z,347.95
2022-10-06T18:59:41.080Z,346.17
2022-10-06T19:02:11.546Z,375.98
2022-10-06T19:04:39.560Z,357.83
2022-10-06T19:07:07.157Z,341.88
2022-10-06T19:09:34.827Z,346.35
2022-10-06T19:12:02.688Z,340.40
2022-10-06T19:14:34.656Z,360.17
2022-10-06T19:17:04.082Z,338.08
2022-10-06T19:19:34.657Z,332.95
2022-10-06T19:22:04.373Z,339.73
2022-10-06T19:24:35.736Z,323.02
2022-10-06T19:27:05.225Z,335.30
2022-10-06T19:29:36.944Z,338.52
2022-10-06T19:32:07.037Z,344.85
2022-10-06T19:34:38.252Z,354.75
2022-10-06T19:37:06.191Z,356.42
2022-10-06T19:39:39.623Z,366.15
2022-10-06T19:42:25.191Z,324.80
2022-10-06T19:44:53.408Z,334.47
2022-10-06T19:47:21.249Z,344.48
2022-10-06T19:49:50.326Z,359.42
2022-10-06T19:52:17.899Z,331.77
2022-10-06T19:54:46.043Z,323.75
2022-10-06T19:57:13.945Z,341.77
2022-10-06T19:59:41.561Z,328.77
2022-10-06T20:02:10.134Z,346.50
2022-10-06T20:04:57.834Z,317.95
2022-10-06T20:07:47.330Z,316.65
2022-10-06T20:10:35.483Z,314.43
2022-10-06T20:13:23.387Z,321.63
2022-10-06T20:16:14.735Z,319.60
2022-10-06T20:19:02.944Z,314.00
2022-10-06T20:21:53.176Z,326.70
2022-10-06T20:24:41.135Z,326.53
2022-10-06T20:27:28.986Z,319.63
2022-10-06T20:30:16.905Z,315.87
2022-10-06T20:33:07.373Z,329.00
2022-10-06T20:35:55.293Z,304.13
2022-10-06T20:39:02.646Z,309.35
2022-10-06T20:41:50.898Z,302.33
2022-10-06T20:44:38.769Z,300.20
2022-10-06T20:47:26.829Z,320.57
2022-10-06T20:50:14.887Z,308.30
2022-10-06T20:53:02.944Z,309.37
2022-10-06T20:55:55.758Z,315.27
2022-10-06T20:58:43.707Z,303.33
2022-10-06T21:01:31.974Z,310.10
2022-10-06T21:04:20.889Z,303.77
2022-10-06T21:07:08.714Z,299.27
2022-10-06T21:09:56.573Z,268.90
2022-10-06T21:12:46.071Z,310.20
2022-10-06T21:15:34.159Z,285.60
2022-10-06T21:18:22.462Z,295.23
2022-10-06T21:21:11.557Z,283.70
2022-10-06T21:23:59.421Z,309.07
2022-10-06T21:26:47.599Z,313.10
2022-10-06T21:29:37.179Z,313.90
2022-10-06T21:32:25.297Z,304.58
2022-10-06T21:35:13.150Z,307.95
2022-10-06T21:38:01.028Z,301.27
2022-10-06T21:40:48.895Z,297.13
2022-10-06T21:43:36.767Z,302.93
2022-10-06T21:46:29.073Z,302.47
2022-10-06T21:49:19.148Z,291.30
2022-10-06T21:52:07.086Z,304.77
2022-10-06T21:54:54.943Z,315.30
2022-10-06T21:57:43.043Z,307.87
2022-10-06T22:00:31.077Z,299.97
2022-10-06T22:03:20.242Z,292.87
2022-10-06T22:06:09.758Z,299.33
2022-10-06T22:08:58.880Z,312.00
2022-10-06T22:11:46.742Z,290.00
2022-10-06T22:14:34.603Z,300.40
2022-10-06T22:17:22.477Z,317.53
2022-10-06T22:20:11.882Z,299.73
2022-10-06T22:23:04.075Z,298.67
2022-10-06T22:25:56.551Z,299.90
2022-10-06T22:28:48.862Z,296.13
2022-10-06T22:31:39.665Z,290.60
2022-10-06T22:34:28.116Z,288.80
2022-10-06T22:37:17.351Z,297.70
2022-10-06T22:40:07.783Z,302.27
2022-10-06T22:42:55.816Z,293.13
2022-10-06T22:45:43.692Z,303.23
2022-10-06T22:48:31.597Z,295.00
2022-10-06T22:51:19.444Z,293.80
2022-10-06T22:54:08.947Z,281.63
2022-10-06T22:56:56.835Z,286.70
2022-10-06T22:59:45.127Z,292.83
2022-10-06T23:02:33.046Z,300.87
2022-10-06T23:05:21.235Z,278.63
2022-10-06T23:08:09.315Z,273.97
2022-10-06T23:11:04.522Z,286.13
2022-10-06T23:13:52.964Z,273.37
2022-10-06T23:16:40.870Z,286.10
2022-10-06T23:19:28.952Z,268.03
2022-10-06T23:22:16.953Z,272.80
2022-10-06T23:25:05.661Z,273.20
2022-10-06T23:27:54.890Z,267.53
2022-10-06T23:30:43.426Z,257.07
2022-10-06T23:33:32.290Z,278.80
2022-10-06T23:36:20.410Z,256.33
2022-10-06T23:39:08.236Z,249.47
2022-10-06T23:41:56.110Z,272.60
2022-10-06T23:44:45.298Z,263.47
2022-10-06T23:47:33.149Z,254.33
2022-10-06T23:50:21.162Z,240.77
2022-10-06T23:53:09.180Z,248.90
2022-10-06T23:55:57.841Z,250.67
2022-10-06T23:58:45.715Z,249.90
